createdAt,value
2023-01-29T00:00:20.348Z,25.50
2023-01-29T00:02:47.023Z,20.27
2023-01-29T00:05:27.034Z,22.20
2023-01-29T00:07:55.445Z,24.63
2023-01-29T00:10:22.415Z,24.58
2023-01-29T00:12:48.897Z,21.48
2023-01-29T00:15:15.516Z,17.67
2023-01-29T00:17:41.926Z,21.77
2023-01-29T00:20:09.326Z,23.88
2023-01-29T00:22:36.703Z,25.77
2023-01-29T00:25:03.571Z,19.40
2023-01-29T00:27:30.087Z,22.33
2023-01-29T00:30:09.577Z,19.85
2023-01-29T00:32:36.399Z,21.45
2023-01-29T00:35:03.588Z,24.10
2023-01-29T00:37:30.293Z,23.77
2023-01-29T00:39:57.150Z,21.35
2023-01-29T00:42:42.410Z,24.42
2023-01-29T00:45:11.674Z,24.02
2023-01-29T00:47:38.226Z,22.15
2023-01-29T00:50:11.224Z,24.25
2023-01-29T00:52:38.507Z,23.85
2023-01-29T00:55:06.143Z,26.50
2023-01-29T00:57:34.184Z,18.48
2023-01-29T01:00:01.816Z,20.85
2023-01-29T01:02:47.368Z,22.02
2023-01-29T01:05:19.572Z,25.33
2023-01-29T01:07:51.584Z,20.67
2023-01-29T01:10:31.238Z,20.63
2023-01-29T01:13:00.553Z,22.30
2023-01-29T01:15:30.641Z,18.77
2023-01-29T01:17:59.816Z,20.60
2023-01-29T01:20:28.289Z,18.70
2023-01-29T01:22:55.462Z,17.30
2023-01-29T01:25:24.142Z,18.85
2023-01-29T01:27:54.931Z,17.20
2023-01-29T01:30:22.284Z,25.50
2023-01-29T01:32:49.137Z,21.85
2023-01-29T01:35:15.996Z,18.45
2023-01-29T01:37:42.880Z,20.65
2023-01-29T01:40:20.902Z,18.42
2023-01-29T01:42:52.795Z,18.35
2023-01-29T01:47:52.432Z,15.50
2023-01-29T01:50:24.191Z,18.40
2023-01-29T01:55:25.331Z,17.02
2023-01-29T01:57:57.635Z,19.88
2023-01-29T02:00:26.741Z,23.20
2023-01-29T02:03:13.769Z,19.95
2023-01-29T02:06:00.512Z,19.52
2023-01-29T02:08:58.019Z,22.20
2023-01-29T02:11:25.104Z,17.08
2023-01-29T02:13:53.525Z,17.98
2023-01-29T02:16:25.467Z,21.77
2023-01-29T02:18:52.356Z,20.98
2023-01-29T02:21:36.163Z,19.85
2023-01-29T02:24:33.951Z,17.58
2023-01-29T02:27:16.782Z,23.02
2023-01-29T02:30:09.143Z,18.30
2023-01-29T02:32:54.408Z,19.63
2023-01-29T02:35:31.941Z,20.85
2023-01-29T02:38:24.893Z,20.90
2023-01-29T02:41:10.556Z,21.35
2023-01-29T02:44:07.843Z,21.85
2023-01-29T02:46:51.148Z,20.13
2023-01-29T02:49:31.682Z,24.48
2023-01-29T02:52:36.441Z,19.95
2023-01-29T02:55:21.859Z,20.75
2023-01-29T02:57:53.877Z,22.55
2023-01-29T03:00:43.370Z,24.10
2023-01-29T03:03:25.700Z,23.52
2023-01-29T03:06:02.253Z,20.50
2023-01-29T03:08:43.088Z,20.33
2023-01-29T03:11:15.554Z,20.90
2023-01-29T03:13:45.976Z,22.55
2023-01-29T03:16:21.907Z,19.15
2023-01-29T03:18:55.264Z,20.25
2023-01-29T03:21:55.063Z,21.35
2023-01-29T03:25:06.752Z,20.10
2023-01-29T03:28:03.764Z,21.52
2023-01-29T03:33:35.561Z,24.08
2023-01-29T03:36:08.869Z,21.50
2023-01-29T03:38:35.427Z,19.48
2023-01-29T03:41:15.683Z,25.85
2023-01-29T03:44:01.500Z,26.80
2023-01-29T03:46:38.479Z,24.15
2023-01-29T03:49:26.848Z,23.85
2023-01-29T03:52:18.860Z,22.95
2023-01-29T03:55:18.513Z,23.43
2023-01-29T03:58:00.251Z,25.00
2023-01-29T04:00:30.527Z,25.80
2023-01-29T04:03:17.939Z,26.27
2023-01-29T04:06:09.862Z,26.05
2023-01-29T04:08:50.522Z,28.33
2023-01-29T04:11:19.892Z,26.77
2023-01-29T04:13:48.231Z,22.88
2023-01-29T04:16:24.349Z,25.30
2023-01-29T04:19:00.993Z,22.92
2023-01-29T04:21:32.947Z,22.42
2023-01-29T04:23:59.733Z,26.52
2023-01-29T04:27:03.908Z,25.13
2023-01-29T04:30:03.302Z,26.17
2023-01-29T04:32:48.058Z,23.80
2023-01-29T04:35:36.215Z,22.30
2023-01-29T04:38:12.681Z,26.23
2023-01-29T04:41:05.258Z,24.65
2023-01-29T04:43:54.230Z,28.52
2023-01-29T04:46:33.369Z,26.75
2023-01-29T04:49:17.709Z,21.52
2023-01-29T04:51:49.455Z,22.80
2023-01-29T04:57:16.863Z,23.13
2023-01-29T04:59:50.839Z,23.98
2023-01-29T05:02:19.429Z,24.15
2023-01-29T05:04:46.942Z,30.38
2023-01-29T05:07:15.500Z,24.05
2023-01-29T05:09:45.400Z,27.92
2023-01-29T05:12:14.397Z,25.13
2023-01-29T05:14:44.037Z,26.60
2023-01-29T05:17:16.748Z,26.55
2023-01-29T05:19:43.471Z,24.45
2023-01-29T05:22:13.126Z,23.92
2023-01-29T05:24:39.646Z,25.17
2023-01-29T05:27:25.063Z,26.77
2023-01-29T05:29:51.523Z,26.52
2023-01-29T05:32:17.957Z,28.05
2023-01-29T05:34:44.447Z,26.25
2023-01-29T05:37:11.211Z,29.55
2023-01-29T05:39:37.678Z,26.77
2023-01-29T05:42:04.262Z,22.63
2023-01-29T05:44:30.790Z,26.25
2023-01-29T05:46:57.337Z,28.30
2023-01-29T05:49:24.066Z,25.90
2023-01-29T05:51:50.604Z,28.40
2023-01-29T05:54:17.062Z,27.08
2023-01-29T05:56:43.497Z,30.10
2023-01-29T05:59:10.044Z,26.30
2023-01-29T06:01:39.599Z,27.38
2023-01-29T06:04:08.579Z,29.80
2023-01-29T06:06:48.962Z,24.50
2023-01-29T06:09:15.483Z,25.58
2023-01-29T06:11:41.917Z,21.33
2023-01-29T06:14:08.415Z,26.27
2023-01-29T06:16:34.997Z,28.85
2023-01-29T06:19:01.650Z,26.42
2023-01-29T06:21:28.187Z,24.33
2023-01-29T06:23:54.793Z,29.80
2023-01-29T06:26:21.328Z,26.88
2023-01-29T06:28:51.411Z,23.30
2023-01-29T06:31:37.925Z,23.08
2023-01-29T06:34:05.411Z,23.88
2023-01-29T06:36:31.892Z,22.20
2023-01-29T06:38:58.401Z,25.73
2023-01-29T06:41:25.680Z,24.80
2023-01-29T06:43:52.806Z,22.63
2023-01-29T06:46:19.591Z,23.55
2023-01-29T06:48:46.179Z,25.35
2023-01-29T06:51:12.726Z,21.83
2023-01-29T06:53:39.566Z,24.13
2023-01-29T06:56:06.612Z,23.27
2023-01-29T06:58:33.605Z,26.23
2023-01-29T07:01:15.509Z,20.98
2023-01-29T07:03:52.053Z,24.13
2023-01-29T07:06:18.891Z,24.40
2023-01-29T07:08:45.555Z,22.25
2023-01-29T07:11:12.489Z,24.90
2023-01-29T07:13:38.977Z,25.13
2023-01-29T07:16:06.843Z,26.70
2023-01-29T07:18:33.355Z,22.48
2023-01-29T07:21:04.500Z,22.83
2023-01-29T07:23:30.958Z,26.92
2023-01-29T07:26:01.141Z,22.75
2023-01-29T07:28:27.643Z,26.33
2023-01-29T07:31:00.493Z,25.10
2023-01-29T07:33:27.095Z,22.83
2023-01-29T07:35:53.804Z,23.67
2023-01-29T07:38:20.458Z,21.23
2023-01-29T07:40:47.108Z,22.52
2023-01-29T07:43:13.992Z,23.33
2023-01-29T07:45:40.816Z,24.80
2023-01-29T07:48:10.787Z,28.02
2023-01-29T07:50:37.764Z,23.92
2023-01-29T07:53:04.621Z,19.48
2023-01-29T07:55:32.589Z,23.08
2023-01-29T07:58:01.252Z,24.35
2023-01-29T08:00:28.643Z,22.05
2023-01-29T08:03:05.205Z,22.10
2023-01-29T08:05:31.660Z,22.92
2023-01-29T08:08:06.412Z,23.52
2023-01-29T08:10:34.555Z,24.20
2023-01-29T08:13:02.000Z,26.65
2023-01-29T08:15:29.553Z,24.17
2023-01-29T08:20:42.777Z,22.45
2023-01-29T08:23:14.279Z,20.42
2023-01-29T08:25:41.565Z,20.85
2023-01-29T08:28:08.714Z,20.13
2023-01-29T08:30:36.152Z,21.50
2023-01-29T08:33:04.555Z,29.08
2023-01-29T08:35:31.246Z,23.73
2023-01-29T08:38:00.083Z,22.48
2023-01-29T08:40:28.676Z,21.42
2023-01-29T08:43:03.199Z,21.55
2023-01-29T08:45:32.976Z,25.20
2023-01-29T08:47:59.530Z,24.33
2023-01-29T08:50:26.141Z,21.95
2023-01-29T08:52:58.221Z,23.63
2023-01-29T08:55:25.331Z,19.33
2023-01-29T08:57:51.791Z,23.55
2023-01-29T09:00:18.929Z,23.80
2023-01-29T09:02:45.543Z,19.25
2023-01-29T09:05:12.115Z,19.73
2023-01-29T09:07:38.708Z,21.63
2023-01-29T09:10:05.742Z,23.63
2023-01-29T09:12:32.399Z,20.73
2023-01-29T09:14:58.914Z,19.77
2023-01-29T09:17:25.449Z,23.33
2023-01-29T09:19:53.057Z,19.60
2023-01-29T09:22:20.620Z,24.38
2023-01-29T09:24:47.110Z,22.90
2023-01-29T09:27:13.630Z,21.02
2023-01-29T09:29:40.084Z,25.48
2023-01-29T09:32:07.162Z,25.13
2023-01-29T09:34:34.472Z,23.73
2023-01-29T09:37:01.061Z,24.23
2023-01-29T09:39:27.644Z,24.60
2023-01-29T09:42:20.635Z,22.85
2023-01-29T09:45:10.773Z,22.70
2023-01-29T09:47:37.441Z,21.15
2023-01-29T09:50:18.426Z,25.58
2023-01-29T09:52:55.718Z,26.05
2023-01-29T09:55:29.082Z,22.02
2023-01-29T09:58:03.604Z,18.73
2023-01-29T10:00:39.699Z,19.65
2023-01-29T10:03:09.145Z,21.80
2023-01-29T10:06:08.625Z,25.13
2023-01-29T10:09:13.784Z,23.92
2023-01-29T10:11:51.799Z,23.77
2023-01-29T10:14:25.037Z,32.45
2023-01-29T10:17:29.030Z,21.92
2023-01-29T10:20:34.724Z,21.95
2023-01-29T10:23:21.561Z,18.35
2023-01-29T10:25:49.421Z,21.23
2023-01-29T10:28:22.097Z,23.92
2023-01-29T10:30:51.869Z,25.60
2023-01-29T10:33:49.323Z,25.70
2023-01-29T10:36:46.599Z,23.55
2023-01-29T10:39:24.635Z,21.98
2023-01-29T10:42:10.126Z,23.05
2023-01-29T10:45:00.614Z,21.67
2023-01-29T10:48:21.412Z,25.20
2023-01-29T10:50:54.261Z,19.67
2023-01-29T10:53:34.766Z,21.17
2023-01-29T10:56:21.858Z,25.48
2023-01-29T10:58:56.756Z,23.95
2023-01-29T11:01:23.911Z,23.08
2023-01-29T11:03:58.550Z,20.63
2023-01-29T11:06:36.107Z,25.92
2023-01-29T11:09:21.052Z,25.40
2023-01-29T11:11:53.006Z,24.08
2023-01-29T11:14:53.199Z,24.05
2023-01-29T11:17:23.212Z,23.65
2023-01-29T11:19:51.722Z,25.08
2023-01-29T11:22:26.520Z,26.75
2023-01-29T11:25:32.766Z,24.75
2023-01-29T11:28:01.756Z,33.00
2023-01-29T11:30:35.650Z,30.05
2023-01-29T11:33:23.784Z,25.35
2023-01-29T11:35:52.539Z,26.02
2023-01-29T11:38:23.569Z,27.85
2023-01-29T11:40:50.252Z,27.87
2023-01-29T11:43:32.987Z,25.85
2023-01-29T11:46:05.922Z,30.50
2023-01-29T11:48:40.786Z,29.98
2023-01-29T11:51:08.941Z,27.70
2023-01-29T11:53:40.188Z,28.02
2023-01-29T11:56:17.684Z,28.55
2023-01-29T11:58:46.229Z,26.17
2023-01-29T12:01:16.313Z,26.25
2023-01-29T12:03:48.765Z,30.15
2023-01-29T12:06:21.773Z,27.92
2023-01-29T12:09:01.405Z,26.42
2023-01-29T12:11:31.711Z,28.10
2023-01-29T12:14:03.162Z,30.75
2023-01-29T12:16:55.027Z,33.70
2023-01-29T12:19:40.624Z,31.63
2023-01-29T12:22:44.432Z,35.45
2023-01-29T12:25:41.389Z,27.73
2023-01-29T12:28:27.859Z,26.92
2023-01-29T12:31:36.637Z,24.50
2023-01-29T12:34:20.616Z,29.15
2023-01-29T12:36:55.394Z,28.08
2023-01-29T12:39:22.099Z,25.95
2023-01-29T12:41:58.059Z,29.55
2023-01-29T12:44:33.528Z,27.98
2023-01-29T12:47:05.355Z,31.60
2023-01-29T12:52:07.055Z,22.65
2023-01-29T12:54:45.781Z,30.27
2023-01-29T12:57:34.430Z,30.92
2023-01-29T13:00:13.451Z,26.25
2023-01-29T13:02:49.833Z,32.08
2023-01-29T13:05:25.642Z,30.27
2023-01-29T13:08:02.987Z,28.15
2023-01-29T13:10:36.859Z,27.17
2023-01-29T13:13:44.664Z,29.63
2023-01-29T13:16:13.613Z,27.17
2023-01-29T13:18:52.837Z,30.38
2023-01-29T13:21:23.652Z,28.60
2023-01-29T13:23:53.323Z,29.50
2023-01-29T13:26:21.858Z,33.10
2023-01-29T13:28:49.589Z,29.98
2023-01-29T13:31:40.715Z,26.85
2023-01-29T13:34:15.181Z,27.23
2023-01-29T13:36:48.197Z,32.65
2023-01-29T13:39:29.455Z,27.45
2023-01-29T13:41:58.207Z,31.15
2023-01-29T13:44:34.418Z,34.40
2023-01-29T13:47:05.171Z,27.20
2023-01-29T13:50:07.700Z,27.17
2023-01-29T13:52:54.761Z,31.50
2023-01-29T13:55:31.038Z,26.13
2023-01-29T13:58:02.509Z,26.38
2023-01-29T14:00:34.745Z,29.33
2023-01-29T14:03:01.166Z,28.15
2023-01-29T14:05:30.804Z,28.00
2023-01-29T14:07:59.431Z,25.63
2023-01-29T14:10:33.913Z,29.67
2023-01-29T14:13:03.405Z,26.52
2023-01-29T14:15:41.851Z,24.60
2023-01-29T14:18:08.426Z,28.90
2023-01-29T14:20:46.716Z,24.73
2023-01-29T14:23:25.221Z,24.30
2023-01-29T14:25:51.973Z,24.20
2023-01-29T14:28:24.808Z,21.65
2023-01-29T14:30:52.417Z,26.15
2023-01-29T14:33:37.838Z,23.25
2023-01-29T14:36:13.229Z,24.48
2023-01-29T14:38:46.269Z,26.58
2023-01-29T14:41:18.855Z,26.58
2023-01-29T14:43:45.392Z,27.27
2023-01-29T14:46:33.742Z,25.65
2023-01-29T14:49:00.960Z,25.65
2023-01-29T14:51:34.634Z,30.38
2023-01-29T14:54:13.218Z,22.23
2023-01-29T14:56:50.643Z,31.55
2023-01-29T14:59:22.062Z,27.42
2023-01-29T15:01:56.059Z,22.30
2023-01-29T15:04:27.295Z,24.10
2023-01-29T15:07:04.714Z,26.60
2023-01-29T15:09:36.695Z,27.52
2023-01-29T15:12:14.242Z,26.15
2023-01-29T15:14:52.300Z,24.33
2023-01-29T15:17:25.083Z,25.85
2023-01-29T15:19:51.714Z,24.27
2023-01-29T15:22:20.388Z,26.58
2023-01-29T15:25:01.836Z,26.30
2023-01-29T15:27:28.680Z,23.65
2023-01-29T15:30:02.372Z,25.70
2023-01-29T15:32:37.639Z,26.27
2023-01-29T15:35:20.223Z,29.70
2023-01-29T15:38:14.095Z,25.63
2023-01-29T15:40:40.732Z,25.52
2023-01-29T15:43:22.574Z,24.70
2023-01-29T15:48:20.573Z,23.63
2023-01-29T15:50:50.862Z,25.15
2023-01-29T15:53:25.197Z,25.23
2023-01-29T15:55:51.820Z,26.58
2023-01-29T15:58:22.802Z,26.17
2023-01-29T16:00:55.382Z,25.20
2023-01-29T16:03:28.127Z,24.20
2023-01-29T16:05:55.312Z,26.33
2023-01-29T16:08:23.662Z,22.52
2023-01-29T16:10:56.529Z,27.42
2023-01-29T16:13:26.136Z,38.08
2023-01-29T16:16:19.599Z,27.08
2023-01-29T16:18:59.517Z,50.15
2023-01-29T16:21:37.784Z,28.98
2023-01-29T16:24:13.848Z,29.40
2023-01-29T16:26:44.800Z,26.45
2023-01-29T16:29:14.731Z,30.90
2023-01-29T16:31:44.345Z,22.40
2023-01-29T16:34:34.940Z,24.38
2023-01-29T16:37:05.432Z,24.63
2023-01-29T16:39:45.953Z,22.52
2023-01-29T16:42:12.885Z,22.50
2023-01-29T16:44:45.583Z,28.92
2023-01-29T16:47:14.562Z,20.55
2023-01-29T16:49:45.457Z,31.00
2023-01-29T16:52:20.270Z,31.57
2023-01-29T16:54:46.897Z,30.67
2023-01-29T16:57:21.502Z,31.38
2023-01-29T16:59:48.903Z,20.67
2023-01-29T17:02:26.456Z,26.58
2023-01-29T17:04:57.191Z,26.20
2023-01-29T17:07:23.756Z,26.65
2023-01-29T17:09:54.596Z,26.48
2023-01-29T17:12:23.918Z,29.05
2023-01-29T17:15:05.929Z,26.35
2023-01-29T17:20:14.161Z,29.20
2023-01-29T17:22:40.824Z,17.20
2023-01-29T17:25:07.733Z,30.30
2023-01-29T17:27:34.227Z,32.50
2023-01-29T17:30:00.862Z,27.27
2023-01-29T17:32:39.903Z,31.33
2023-01-29T17:35:13.963Z,19.67
2023-01-29T17:37:40.823Z,30.65
2023-01-29T17:40:47.510Z,34.03
2023-01-29T17:43:14.111Z,30.88
2023-01-29T17:45:41.261Z,30.52
2023-01-29T17:48:12.749Z,28.42
2023-01-29T17:50:40.817Z,30.55
2023-01-29T17:53:07.294Z,31.95
2023-01-29T17:55:33.814Z,28.42
2023-01-29T17:58:00.321Z,33.97
2023-01-29T18:00:26.793Z,32.13
2023-01-29T18:02:54.275Z,28.70
2023-01-29T18:05:20.987Z,35.58
2023-01-29T18:07:47.949Z,30.85
2023-01-29T18:10:20.327Z,36.20
2023-01-29T18:12:47.340Z,27.15
2023-01-29T18:15:13.916Z,37.67
2023-01-29T18:17:41.295Z,34.92
2023-01-29T18:20:25.832Z,31.73
2023-01-29T18:22:52.943Z,29.60
2023-01-29T18:25:19.880Z,32.20
2023-01-29T18:27:46.526Z,30.25
2023-01-29T18:30:13.875Z,33.63
2023-01-29T18:32:40.612Z,30.42
2023-01-29T18:35:08.099Z,32.35
2023-01-29T18:37:34.751Z,35.10
2023-01-29T18:40:01.284Z,29.85
2023-01-29T18:42:31.263Z,30.13
2023-01-29T18:44:57.756Z,35.80
2023-01-29T18:47:24.408Z,36.83
2023-01-29T18:49:51.845Z,28.80
2023-01-29T18:52:18.477Z,28.30
2023-01-29T18:54:44.900Z,27.90
2023-01-29T18:57:14.921Z,26.83
2023-01-29T18:59:58.090Z,30.60
2023-01-29T19:02:24.818Z,34.58
2023-01-29T19:04:51.666Z,26.23
2023-01-29T19:07:18.134Z,31.15
2023-01-29T19:09:46.554Z,28.77
2023-01-29T19:12:13.165Z,30.23
2023-01-29T19:14:39.690Z,28.48
2023-01-29T19:17:06.348Z,27.65
2023-01-29T19:19:33.011Z,29.50
2023-01-29T19:21:59.627Z,33.05
2023-01-29T19:24:27.515Z,30.67
2023-01-29T19:26:54.100Z,25.60
2023-01-29T19:29:20.687Z,31.15
2023-01-29T19:31:47.610Z,31.92
2023-01-29T19:34:14.260Z,31.58
2023-01-29T19:36:40.915Z,29.60
2023-01-29T19:39:07.373Z,26.65
2023-01-29T19:41:34.857Z,26.50
2023-01-29T19:44:01.369Z,30.05
2023-01-29T19:46:30.072Z,28.27
2023-01-29T19:48:58.534Z,30.90
2023-01-29T19:51:27.226Z,33.28
2023-01-29T19:53:55.349Z,34.97
2023-01-29T19:56:21.826Z,38.30
2023-01-29T19:58:48.408Z,29.30
2023-01-29T20:01:20.844Z,26.13
2023-01-29T20:03:48.953Z,32.13
2023-01-29T20:06:18.067Z,24.90
2023-01-29T20:08:47.139Z,32.10
2023-01-29T20:11:15.136Z,29.15
2023-01-29T20:13:41.911Z,25.52
2023-01-29T20:16:08.856Z,31.60
2023-01-29T20:18:35.356Z,30.05
2023-01-29T20:21:16.429Z,29.75
2023-01-29T20:23:45.030Z,31.15
2023-01-29T20:26:14.763Z,32.40
2023-01-29T20:28:41.966Z,34.90
2023-01-29T20:31:09.797Z,32.28
2023-01-29T20:33:39.164Z,33.90
2023-01-29T20:36:09.041Z,31.17
2023-01-29T20:38:35.849Z,32.85
2023-01-29T20:41:07.958Z,28.55
2023-01-29T20:43:34.872Z,30.25
2023-01-29T20:46:02.352Z,31.75
2023-01-29T20:48:29.810Z,29.50
2023-01-29T20:50:56.967Z,30.63
2023-01-29T20:53:23.424Z,35.05
2023-01-29T20:55:50.007Z,36.00
2023-01-29T20:58:16.545Z,28.80
2023-01-29T21:00:44.268Z,32.42
2023-01-29T21:03:10.769Z,36.13
2023-01-29T21:05:37.239Z,29.98
2023-01-29T21:08:03.746Z,32.05
2023-01-29T21:10:30.186Z,30.13
2023-01-29T21:12:56.864Z,36.97
2023-01-29T21:15:24.644Z,34.92
2023-01-29T21:17:52.301Z,32.25
2023-01-29T21:20:19.071Z,30.85
2023-01-29T21:22:45.743Z,30.83
2023-01-29T21:25:12.256Z,25.80
2023-01-29T21:27:38.720Z,37.22
2023-01-29T21:30:05.876Z,31.33
2023-01-29T21:32:32.536Z,29.27
2023-01-29T21:34:59.039Z,30.40
2023-01-29T21:37:25.612Z,27.92
2023-01-29T21:39:52.159Z,31.67
2023-01-29T21:42:37.335Z,36.15
2023-01-29T21:45:04.285Z,34.58
2023-01-29T21:47:30.715Z,27.77
2023-01-29T21:49:57.135Z,35.38
2023-01-29T21:52:23.631Z,30.27
2023-01-29T21:54:50.248Z,28.42
2023-01-29T21:57:16.923Z,30.95
2023-01-29T21:59:43.486Z,35.10
2023-01-29T22:02:17.307Z,26.35
2023-01-29T22:04:43.932Z,34.58
2023-01-29T22:07:11.521Z,32.72
2023-01-29T22:09:38.503Z,31.40
2023-01-29T22:12:08.989Z,28.13
2023-01-29T22:14:35.724Z,29.38
2023-01-29T22:17:02.245Z,26.85
2023-01-29T22:19:29.422Z,33.92
2023-01-29T22:21:56.365Z,30.15
2023-01-29T22:24:23.498Z,33.20
2023-01-29T22:26:50.133Z,30.33
2023-01-29T22:29:17.350Z,34.15
2023-01-29T22:31:44.468Z,30.38
2023-01-29T22:34:12.560Z,27.90
2023-01-29T22:36:39.102Z,31.30
2023-01-29T22:39:09.278Z,31.60
2023-01-29T22:41:36.356Z,31.80
2023-01-29T22:44:02.997Z,32.83
2023-01-29T22:46:29.601Z,27.25
2023-01-29T22:48:56.513Z,27.48
2023-01-29T22:51:23.368Z,31.08
2023-01-29T22:53:54.704Z,27.00
2023-01-29T22:56:26.239Z,31.77
2023-01-29T22:58:54.722Z,31.65
2023-01-29T23:01:22.938Z,32.90
2023-01-29T23:03:49.618Z,31.63
2023-01-29T23:06:16.670Z,31.90
2023-01-29T23:08:43.166Z,30.00
2023-01-29T23:11:14.721Z,30.92
2023-01-29T23:13:46.894Z,32.85
2023-01-29T23:16:15.219Z,30.02
2023-01-29T23:18:42.105Z,30.13
2023-01-29T23:21:09.488Z,31.65
2023-01-29T23:23:37.253Z,35.85
2023-01-29T23:26:25.286Z,34.60
2023-01-29T23:28:51.951Z,32.15
2023-01-29T23:31:18.955Z,31.02
2023-01-29T23:33:45.495Z,29.17
2023-01-29T23:36:12.293Z,24.63
2023-01-29T23:38:39.299Z,27.20
2023-01-29T23:41:06.229Z,27.50
2023-01-29T23:43:32.968Z,26.45
2023-01-29T23:45:59.669Z,25.35
2023-01-29T23:48:26.159Z,29.13
2023-01-29T23:50:52.645Z,26.95
2023-01-29T23:53:19.200Z,23.17
2023-01-29T23:55:56.095Z,31.92
2023-01-29T23:58:22.792Z,25.63
